sensor_id;sensor_type;location;lat;lon;timestamp;P1;durP1;ratioP1;P2;durP2;ratioP2
22336;SDS011;14992;50.844;4.418;2024-02-21T00:00:09;14.75;;;5.53;;
22336;SDS011;14992;50.844;4.418;2024-02-21T00:02:39;10.75;;;6.35;;
22336;SDS011;14992;50.844;4.418;2024-02-21T00:05:08;15.88;;;6.05;;
22336;SDS011;14992;50.844;4.418;2024-02-21T00:07:36;13.73;;;5.90;;
22336;SDS011;14992;50.844;4.418;2024-02-21T00:10:06;12.05;;;6.55;;
22336;SDS011;14992;50.844;4.418;2024-02-21T00:12:37;13.70;;;4.90;;
22336;SDS011;14992;50.844;4.418;2024-02-21T00:15:06;14.00;;;5.47;;
22336;SDS011;14992;50.844;4.418;2024-02-21T00:17:35;12.10;;;4.65;;
22336;SDS011;14992;50.844;4.418;2024-02-21T00:20:05;12.43;;;6.00;;
22336;SDS011;14992;50.844;4.418;2024-02-21T00:22:34;15.70;;;5.95;;
22336;SDS011;14992;50.844;4.418;2024-02-21T00:25:04;12.57;;;5.10;;
22336;SDS011;14992;50.844;4.418;2024-02-21T00:27:33;12.07;;;5.50;;
22336;SDS011;14992;50.844;4.418;2024-02-21T00:30:04;9.15;;;4.55;;
22336;SDS011;14992;50.844;4.418;2024-02-21T00:32:34;9.60;;;4.68;;
22336;SDS011;14992;50.844;4.418;2024-02-21T00:35:03;15.43;;;4.57;;
22336;SDS011;14992;50.844;4.418;2024-02-21T00:37:32;13.15;;;5.07;;
22336;SDS011;14992;50.844;4.418;2024-02-21T00:40:01;10.27;;;4.30;;
22336;SDS011;14992;50.844;4.418;2024-02-21T00:42:30;8.25;;;4.55;;
22336;SDS011;14992;50.844;4.418;2024-02-21T00:44:58;10.52;;;3.97;;
22336;SDS011;14992;50.844;4.418;2024-02-21T00:47:29;9.02;;;4.30;;
22336;SDS011;14992;50.844;4.418;2024-02-21T00:49:58;11.32;;;5.40;;
22336;SDS011;14992;50.844;4.418;2024-02-21T00:52:27;13.45;;;4.32;;
22336;SDS011;14992;50.844;4.418;2024-02-21T00:54:55;10.38;;;4.63;;
22336;SDS011;14992;50.844;4.418;2024-02-21T00:57:24;9.35;;;4.13;;
22336;SDS011;14992;50.844;4.418;2024-02-21T00:59:54;9.95;;;4.03;;
22336;SDS011;14992;50.844;4.418;2024-02-21T01:02:23;12.60;;;4.32;;
22336;SDS011;14992;50.844;4.418;2024-02-21T01:04:53;15.05;;;5.47;;
22336;SDS011;14992;50.844;4.418;2024-02-21T01:07:22;13.02;;;4.75;;
22336;SDS011;14992;50.844;4.418;2024-02-21T01:09:51;11.48;;;5.20;;
22336;SDS011;14992;50.844;4.418;2024-02-21T01:12:20;10.43;;;4.53;;
22336;SDS011;14992;50.844;4.418;2024-02-21T01:14:49;11.68;;;5.03;;
22336;SDS011;14992;50.844;4.418;2024-02-21T01:17:18;10.70;;;5.32;;
22336;SDS011;14992;50.844;4.418;2024-02-21T01:19:47;10.75;;;5.60;;
22336;SDS011;14992;50.844;4.418;2024-02-21T01:22:18;13.02;;;4.85;;
22336;SDS011;14992;50.844;4.418;2024-02-21T01:24:47;15.25;;;5.05;;
22336;SDS011;14992;50.844;4.418;2024-02-21T01:27:16;11.23;;;5.70;;
22336;SDS011;14992;50.844;4.418;2024-02-21T01:29:45;11.68;;;5.38;;
22336;SDS011;14992;50.844;4.418;2024-02-21T01:32:16;13.10;;;5.32;;
22336;SDS011;14992;50.844;4.418;2024-02-21T01:34:45;14.13;;;5.18;;
22336;SDS011;14992;50.844;4.418;2024-02-21T01:37:14;10.15;;;5.20;;
22336;SDS011;14992;50.844;4.418;2024-02-21T01:39:45;12.38;;;5.13;;
22336;SDS011;14992;50.844;4.418;2024-02-21T01:42:13;16.05;;;6.53;;
22336;SDS011;14992;50.844;4.418;2024-02-21T01:44:42;15.95;;;5.18;;
22336;SDS011;14992;50.844;4.418;2024-02-21T01:47:11;13.55;;;5.65;;
22336;SDS011;14992;50.844;4.418;2024-02-21T01:49:41;18.40;;;6.78;;
22336;SDS011;14992;50.844;4.418;2024-02-21T01:52:12;13.95;;;6.25;;
22336;SDS011;14992;50.844;4.418;2024-02-21T01:54:42;15.95;;;7.15;;
22336;SDS011;14992;50.844;4.418;2024-02-21T01:57:14;13.90;;;6.22;;
22336;SDS011;14992;50.844;4.418;2024-02-21T01:59:43;12.70;;;5.55;;
22336;SDS011;14992;50.844;4.418;2024-02-21T02:02:13;11.50;;;5.70;;
22336;SDS011;14992;50.844;4.418;2024-02-21T02:04:43;12.88;;;5.45;;
22336;SDS011;14992;50.844;4.418;2024-02-21T02:07:13;16.90;;;6.25;;
22336;SDS011;14992;50.844;4.418;2024-02-21T02:09:42;15.32;;;6.38;;
22336;SDS011;14992;50.844;4.418;2024-02-21T02:12:13;11.60;;;5.72;;
22336;SDS011;14992;50.844;4.418;2024-02-21T02:14:41;13.15;;;6.75;;
22336;SDS011;14992;50.844;4.418;2024-02-21T02:17:10;12.98;;;5.90;;
22336;SDS011;14992;50.844;4.418;2024-02-21T02:19:39;11.52;;;5.80;;
22336;SDS011;14992;50.844;4.418;2024-02-21T02:22:09;12.65;;;5.93;;
22336;SDS011;14992;50.844;4.418;2024-02-21T02:24:44;15.05;;;5.82;;
22336;SDS011;14992;50.844;4.418;2024-02-21T02:27:13;12.38;;;5.45;;
22336;SDS011;14992;50.844;4.418;2024-02-21T02:29:42;11.80;;;6.28;;
22336;SDS011;14992;50.844;4.418;2024-02-21T02:32:11;10.48;;;5.32;;
22336;SDS011;14992;50.844;4.418;2024-02-21T02:34:40;9.57;;;5.03;;
22336;SDS011;14992;50.844;4.418;2024-02-21T02:37:09;10.05;;;4.57;;
22336;SDS011;14992;50.844;4.418;2024-02-21T02:39:38;17.80;;;4.88;;
22336;SDS011;14992;50.844;4.418;2024-02-21T02:42:08;10.30;;;5.20;;
22336;SDS011;14992;50.844;4.418;2024-02-21T02:44:37;11.57;;;4.82;;
22336;SDS011;14992;50.844;4.418;2024-02-21T02:47:06;12.95;;;5.78;;
22336;SDS011;14992;50.844;4.418;2024-02-21T02:49:35;10.45;;;5.00;;
22336;SDS011;14992;50.844;4.418;2024-02-21T02:52:04;10.52;;;5.78;;
22336;SDS011;14992;50.844;4.418;2024-02-21T02:54:33;11.73;;;4.60;;
22336;SDS011;14992;50.844;4.418;2024-02-21T02:57:02;11.38;;;5.32;;
22336;SDS011;14992;50.844;4.418;2024-02-21T02:59:34;9.93;;;5.20;;
22336;SDS011;14992;50.844;4.418;2024-02-21T03:02:03;8.48;;;5.78;;
22336;SDS011;14992;50.844;4.418;2024-02-21T03:04:31;12.75;;;5.45;;
22336;SDS011;14992;50.844;4.418;2024-02-21T03:07:00;10.52;;;4.88;;
22336;SDS011;14992;50.844;4.418;2024-02-21T03:09:29;10.25;;;5.35;;
22336;SDS011;14992;50.844;4.418;2024-02-21T03:11:58;9.60;;;5.47;;
22336;SDS011;14992;50.844;4.418;2024-02-21T03:14:30;13.50;;;5.65;;
22336;SDS011;14992;50.844;4.418;2024-02-21T03:17:00;9.48;;;4.72;;
22336;SDS011;14992;50.844;4.418;2024-02-21T03:19:30;11.13;;;5.50;;
22336;SDS011;14992;50.844;4.418;2024-02-21T03:21:59;12.45;;;4.38;;
22336;SDS011;14992;50.844;4.418;2024-02-21T03:24:28;10.23;;;5.22;;
22336;SDS011;14992;50.844;4.418;2024-02-21T03:26:59;12.38;;;5.15;;
22336;SDS011;14992;50.844;4.418;2024-02-21T03:29:28;11.73;;;5.15;;
22336;SDS011;14992;50.844;4.418;2024-02-21T03:31:57;11.25;;;5.47;;
22336;SDS011;14992;50.844;4.418;2024-02-21T03:34:27;9.10;;;5.10;;
22336;SDS011;14992;50.844;4.418;2024-02-21T03:36:56;10.82;;;5.05;;
22336;SDS011;14992;50.844;4.418;2024-02-21T03:39:26;13.32;;;5.68;;
22336;SDS011;14992;50.844;4.418;2024-02-21T03:41:54;11.68;;;5.35;;
22336;SDS011;14992;50.844;4.418;2024-02-21T03:44:23;8.85;;;4.88;;
22336;SDS011;14992;50.844;4.418;2024-02-21T03:46:52;11.10;;;5.72;;
22336;SDS011;14992;50.844;4.418;2024-02-21T03:49:21;10.65;;;5.28;;
22336;SDS011;14992;50.844;4.418;2024-02-21T03:51:51;12.10;;;5.30;;
22336;SDS011;14992;50.844;4.418;2024-02-21T03:54:20;11.70;;;5.45;;
22336;SDS011;14992;50.844;4.418;2024-02-21T03:56:49;10.77;;;5.65;;
22336;SDS011;14992;50.844;4.418;2024-02-21T03:59:18;16.58;;;5.55;;
22336;SDS011;14992;50.844;4.418;2024-02-21T04:01:47;13.82;;;6.55;;
22336;SDS011;14992;50.844;4.418;2024-02-21T04:04:20;12.55;;;5.38;;
22336;SDS011;14992;50.844;4.418;2024-02-21T04:06:51;11.38;;;5.10;;
22336;SDS011;14992;50.844;4.418;2024-02-21T04:09:20;15.70;;;6.28;;
22336;SDS011;14992;50.844;4.418;2024-02-21T04:11:49;14.75;;;5.97;;
22336;SDS011;14992;50.844;4.418;2024-02-21T04:14:19;14.45;;;5.65;;
22336;SDS011;14992;50.844;4.418;2024-02-21T04:16:48;10.63;;;5.45;;
22336;SDS011;14992;50.844;4.418;2024-02-21T04:19:17;14.57;;;5.75;;
22336;SDS011;14992;50.844;4.418;2024-02-21T04:21:45;13.52;;;6.65;;
22336;SDS011;14992;50.844;4.418;2024-02-21T04:24:16;13.70;;;5.78;;
22336;SDS011;14992;50.844;4.418;2024-02-21T04:26:44;12.55;;;6.32;;
22336;SDS011;14992;50.844;4.418;2024-02-21T04:29:13;12.73;;;6.35;;
22336;SDS011;14992;50.844;4.418;2024-02-21T04:31:42;11.82;;;5.68;;
22336;SDS011;14992;50.844;4.418;2024-02-21T04:34:12;9.90;;;6.00;;
22336;SDS011;14992;50.844;4.418;2024-02-21T04:36:41;15.20;;;7.00;;
22336;SDS011;14992;50.844;4.418;2024-02-21T04:39:10;18.67;;;6.70;;
22336;SDS011;14992;50.844;4.418;2024-02-21T04:41:41;15.88;;;6.88;;
22336;SDS011;14992;50.844;4.418;2024-02-21T04:44:09;10.75;;;6.72;;
22336;SDS011;14992;50.844;4.418;2024-02-21T04:46:41;12.68;;;6.13;;
22336;SDS011;14992;50.844;4.418;2024-02-21T04:49:10;14.43;;;5.30;;
22336;SDS011;14992;50.844;4.418;2024-02-21T04:51:40;15.75;;;6.28;;
22336;SDS011;14992;50.844;4.418;2024-02-21T04:54:09;18.08;;;6.85;;
22336;SDS011;14992;50.844;4.418;2024-02-21T04:56:37;10.55;;;6.35;;
22336;SDS011;14992;50.844;4.418;2024-02-21T04:59:08;13.93;;;6.28;;
22336;SDS011;14992;50.844;4.418;2024-02-21T05:01:36;10.57;;;6.43;;
22336;SDS011;14992;50.844;4.418;2024-02-21T05:04:05;10.02;;;5.28;;
22336;SDS011;14992;50.844;4.418;2024-02-21T05:06:36;9.05;;;5.05;;
22336;SDS011;14992;50.844;4.418;2024-02-21T05:09:06;13.07;;;5.82;;
22336;SDS011;14992;50.844;4.418;2024-02-21T05:11:37;12.90;;;4.93;;
22336;SDS011;14992;50.844;4.418;2024-02-21T05:14:08;8.35;;;5.15;;
22336;SDS011;14992;50.844;4.418;2024-02-21T05:16:38;12.32;;;5.32;;
22336;SDS011;14992;50.844;4.418;2024-02-21T05:19:08;13.32;;;5.35;;
22336;SDS011;14992;50.844;4.418;2024-02-21T05:21:37;10.32;;;5.22;;
22336;SDS011;14992;50.844;4.418;2024-02-21T05:24:05;11.52;;;4.72;;
22336;SDS011;14992;50.844;4.418;2024-02-21T05:26:34;8.43;;;4.75;;
22336;SDS011;14992;50.844;4.418;2024-02-21T05:29:03;10.50;;;5.28;;
22336;SDS011;14992;50.844;4.418;2024-02-21T05:31:54;10.95;;;5.00;;
22336;SDS011;14992;50.844;4.418;2024-02-21T05:34:25;10.90;;;5.43;;
22336;SDS011;14992;50.844;4.418;2024-02-21T05:36:54;15.25;;;4.57;;
22336;SDS011;14992;50.844;4.418;2024-02-21T05:39:24;14.57;;;4.78;;
22336;SDS011;14992;50.844;4.418;2024-02-21T05:41:53;8.75;;;5.28;;
22336;SDS011;14992;50.844;4.418;2024-02-21T05:44:22;8.70;;;4.30;;
22336;SDS011;14992;50.844;4.418;2024-02-21T05:46:52;9.60;;;4.75;;
22336;SDS011;14992;50.844;4.418;2024-02-21T05:49:22;10.90;;;5.60;;
22336;SDS011;14992;50.844;4.418;2024-02-21T05:51:51;10.88;;;5.45;;
22336;SDS011;14992;50.844;4.418;2024-02-21T05:54:21;12.15;;;5.47;;
22336;SDS011;14992;50.844;4.418;2024-02-21T05:56:49;7.75;;;3.88;;
22336;SDS011;14992;50.844;4.418;2024-02-21T05:59:20;13.02;;;4.30;;
22336;SDS011;14992;50.844;4.418;2024-02-21T06:01:56;15.15;;;8.98;;
22336;SDS011;14992;50.844;4.418;2024-02-21T06:04:25;18.33;;;10.30;;
22336;SDS011;14992;50.844;4.418;2024-02-21T06:06:54;13.07;;;7.35;;
22336;SDS011;14992;50.844;4.418;2024-02-21T06:09:24;9.27;;;4.63;;
22336;SDS011;14992;50.844;4.418;2024-02-21T06:11:53;13.30;;;5.40;;
22336;SDS011;14992;50.844;4.418;2024-02-21T06:14:22;9.30;;;3.55;;
22336;SDS011;14992;50.844;4.418;2024-02-21T06:16:51;7.82;;;3.58;;
22336;SDS011;14992;50.844;4.418;2024-02-21T06:19:22;5.03;;;3.47;;
22336;SDS011;14992;50.844;4.418;2024-02-21T06:21:51;6.45;;;2.92;;
22336;SDS011;14992;50.844;4.418;2024-02-21T06:24:20;7.72;;;3.90;;
22336;SDS011;14992;50.844;4.418;2024-02-21T06:26:49;6.95;;;3.90;;
22336;SDS011;14992;50.844;4.418;2024-02-21T06:29:19;9.05;;;4.10;;
22336;SDS011;14992;50.844;4.418;2024-02-21T06:31:48;8.18;;;4.63;;
22336;SDS011;14992;50.844;4.418;2024-02-21T06:34:17;7.28;;;3.50;;
22336;SDS011;14992;50.844;4.418;2024-02-21T06:36:47;6.60;;;4.30;;
22336;SDS011;14992;50.844;4.418;2024-02-21T06:39:16;6.82;;;4.00;;
22336;SDS011;14992;50.844;4.418;2024-02-21T06:41:45;8.50;;;4.25;;
22336;SDS011;14992;50.844;4.418;2024-02-21T06:44:14;8.32;;;4.20;;
22336;SDS011;14992;50.844;4.418;2024-02-21T06:46:43;8.10;;;3.80;;
22336;SDS011;14992;50.844;4.418;2024-02-21T06:49:12;5.15;;;3.67;;
22336;SDS011;14992;50.844;4.418;2024-02-21T06:51:43;8.73;;;4.07;;
22336;SDS011;14992;50.844;4.418;2024-02-21T06:54:13;9.05;;;4.50;;
22336;SDS011;14992;50.844;4.418;2024-02-21T06:56:42;9.30;;;4.50;;
22336;SDS011;14992;50.844;4.418;2024-02-21T06:59:11;10.30;;;4.63;;
22336;SDS011;14992;50.844;4.418;2024-02-21T07:01:44;6.85;;;4.40;;
22336;SDS011;14992;50.844;4.418;2024-02-21T07:04:14;8.27;;;4.40;;
22336;SDS011;14992;50.844;4.418;2024-02-21T07:06:46;6.80;;;4.00;;
22336;SDS011;14992;50.844;4.418;2024-02-21T07:09:16;7.65;;;4.88;;
22336;SDS011;14992;50.844;4.418;2024-02-21T07:11:45;8.57;;;4.60;;
22336;SDS011;14992;50.844;4.418;2024-02-21T07:14:14;13.52;;;5.68;;
22336;SDS011;14992;50.844;4.418;2024-02-21T07:16:43;10.88;;;5.22;;
22336;SDS011;14992;50.844;4.418;2024-02-21T07:19:12;16.13;;;9.30;;
22336;SDS011;14992;50.844;4.418;2024-02-21T07:21:41;13.57;;;7.43;;
22336;SDS011;14992;50.844;4.418;2024-02-21T07:24:10;12.93;;;5.50;;
22336;SDS011;14992;50.844;4.418;2024-02-21T07:26:42;9.90;;;4.18;;
22336;SDS011;14992;50.844;4.418;2024-02-21T07:29:11;12.85;;;4.88;;
22336;SDS011;14992;50.844;4.418;2024-02-21T07:31:41;9.60;;;5.43;;
22336;SDS011;14992;50.844;4.418;2024-02-21T07:34:11;8.50;;;5.28;;
22336;SDS011;14992;50.844;4.418;2024-02-21T07:36:40;7.45;;;4.40;;
22336;SDS011;14992;50.844;4.418;2024-02-21T07:39:10;9.48;;;4.90;;
22336;SDS011;14992;50.844;4.418;2024-02-21T07:41:39;7.75;;;5.15;;
22336;SDS011;14992;50.844;4.418;2024-02-21T07:44:11;9.02;;;4.95;;
22336;SDS011;14992;50.844;4.418;2024-02-21T07:46:40;8.48;;;4.85;;
22336;SDS011;14992;50.844;4.418;2024-02-21T07:49:08;10.85;;;4.85;;
22336;SDS011;14992;50.844;4.418;2024-02-21T07:51:37;8.68;;;4.90;;
22336;SDS011;14992;50.844;4.418;2024-02-21T07:54:06;6.35;;;4.32;;
22336;SDS011;14992;50.844;4.418;2024-02-21T07:56:42;8.90;;;5.13;;
22336;SDS011;14992;50.844;4.418;2024-02-21T07:59:13;8.30;;;4.78;;
22336;SDS011;14992;50.844;4.418;2024-02-21T08:01:41;9.43;;;4.82;;
22336;SDS011;14992;50.844;4.418;2024-02-21T08:04:11;9.10;;;4.25;;
22336;SDS011;14992;50.844;4.418;2024-02-21T08:06:41;9.98;;;4.97;;
22336;SDS011;14992;50.844;4.418;2024-02-21T08:09:12;6.63;;;3.83;;
22336;SDS011;14992;50.844;4.418;2024-02-21T08:11:41;5.65;;;3.88;;
22336;SDS011;14992;50.844;4.418;2024-02-21T08:14:10;8.13;;;4.40;;
22336;SDS011;14992;50.844;4.418;2024-02-21T08:16:40;10.13;;;4.50;;
22336;SDS011;14992;50.844;4.418;2024-02-21T08:19:10;7.30;;;3.75;;
22336;SDS011;14992;50.844;4.418;2024-02-21T08:21:39;8.00;;;4.20;;
22336;SDS011;14992;50.844;4.418;2024-02-21T08:24:08;7.72;;;3.72;;
22336;SDS011;14992;50.844;4.418;2024-02-21T08:26:39;8.32;;;4.53;;
22336;SDS011;14992;50.844;4.418;2024-02-21T08:29:08;8.93;;;4.30;;
22336;SDS011;14992;50.844;4.418;2024-02-21T08:31:37;8.57;;;4.35;;
22336;SDS011;14992;50.844;4.418;2024-02-21T08:34:08;7.18;;;3.80;;
22336;SDS011;14992;50.844;4.418;2024-02-21T08:36:37;7.32;;;4.15;;
22336;SDS011;14992;50.844;4.418;2024-02-21T08:39:06;6.25;;;4.47;;
22336;SDS011;14992;50.844;4.418;2024-02-21T08:41:36;6.30;;;4.38;;
22336;SDS011;14992;50.844;4.418;2024-02-21T08:44:22;9.15;;;4.47;;
22336;SDS011;14992;50.844;4.418;2024-02-21T08:46:53;5.90;;;4.25;;
22336;SDS011;14992;50.844;4.418;2024-02-21T08:49:25;7.68;;;4.13;;
22336;SDS011;14992;50.844;4.418;2024-02-21T08:52:01;7.28;;;4.25;;
22336;SDS011;14992;50.844;4.418;2024-02-21T08:54:31;8.55;;;3.80;;
22336;SDS011;14992;50.844;4.418;2024-02-21T08:57:01;8.70;;;4.70;;
22336;SDS011;14992;50.844;4.418;2024-02-21T08:59:30;10.65;;;5.07;;
22336;SDS011;14992;50.844;4.418;2024-02-21T09:02:00;8.57;;;4.35;;
22336;SDS011;14992;50.844;4.418;2024-02-21T09:04:31;8.52;;;4.55;;
22336;SDS011;14992;50.844;4.418;2024-02-21T09:07:00;15.30;;;5.25;;
22336;SDS011;14992;50.844;4.418;2024-02-21T09:09:30;8.63;;;4.43;;
22336;SDS011;14992;50.844;4.418;2024-02-21T09:12:00;8.50;;;4.22;;
22336;SDS011;14992;50.844;4.418;2024-02-21T09:14:33;11.25;;;4.85;;
22336;SDS011;14992;50.844;4.418;2024-02-21T09:17:02;10.95;;;4.13;;
22336;SDS011;14992;50.844;4.418;2024-02-21T09:19:32;9.48;;;4.78;;
22336;SDS011;14992;50.844;4.418;2024-02-21T09:22:01;10.00;;;4.47;;
22336;SDS011;14992;50.844;4.418;2024-02-21T09:24:30;7.18;;;3.13;;
22336;SDS011;14992;50.844;4.418;2024-02-21T09:26:59;6.45;;;4.20;;
22336;SDS011;14992;50.844;4.418;2024-02-21T09:29:28;4.07;;;2.40;;
22336;SDS011;14992;50.844;4.418;2024-02-21T09:31:57;7.72;;;3.83;;
22336;SDS011;14992;50.844;4.418;2024-02-21T09:34:27;7.90;;;3.13;;
22336;SDS011;14992;50.844;4.418;2024-02-21T09:36:57;5.38;;;3.38;;
22336;SDS011;14992;50.844;4.418;2024-02-21T09:39:26;7.85;;;3.65;;
22336;SDS011;14992;50.844;4.418;2024-02-21T09:41:56;6.82;;;4.53;;
22336;SDS011;14992;50.844;4.418;2024-02-21T09:44:32;5.72;;;3.88;;
22336;SDS011;14992;50.844;4.418;2024-02-21T09:47:06;6.63;;;3.42;;
22336;SDS011;14992;50.844;4.418;2024-02-21T09:49:40;6.32;;;4.03;;
22336;SDS011;14992;50.844;4.418;2024-02-21T09:52:13;7.68;;;3.47;;
22336;SDS011;14992;50.844;4.418;2024-02-21T09:54:45;5.32;;;3.47;;
22336;SDS011;14992;50.844;4.418;2024-02-21T09:57:16;6.68;;;3.10;;
22336;SDS011;14992;50.844;4.418;2024-02-21T09:59:45;8.45;;;2.88;;
22336;SDS011;14992;50.844;4.418;2024-02-21T10:02:14;9.55;;;4.32;;
22336;SDS011;14992;50.844;4.418;2024-02-21T10:04:43;7.20;;;3.85;;
22336;SDS011;14992;50.844;4.418;2024-02-21T10:07:14;4.93;;;2.80;;
22336;SDS011;14992;50.844;4.418;2024-02-21T10:09:43;7.63;;;3.05;;
22336;SDS011;14992;50.844;4.418;2024-02-21T10:12:14;8.07;;;3.42;;
22336;SDS011;14992;50.844;4.418;2024-02-21T10:14:46;6.22;;;2.60;;
22336;SDS011;14992;50.844;4.418;2024-02-21T10:17:15;5.35;;;2.40;;
22336;SDS011;14992;50.844;4.418;2024-02-21T10:19:46;8.07;;;2.63;;
22336;SDS011;14992;50.844;4.418;2024-02-21T10:22:17;7.93;;;2.92;;
22336;SDS011;14992;50.844;4.418;2024-02-21T10:24:48;4.35;;;2.53;;
22336;SDS011;14992;50.844;4.418;2024-02-21T10:27:16;5.25;;;2.78;;
22336;SDS011;14992;50.844;4.418;2024-02-21T10:29:48;10.00;;;3.10;;
22336;SDS011;14992;50.844;4.418;2024-02-21T10:32:18;3.30;;;2.72;;
22336;SDS011;14992;50.844;4.418;2024-02-21T10:34:47;6.90;;;2.30;;
22336;SDS011;14992;50.844;4.418;2024-02-21T10:37:20;6.10;;;2.60;;
22336;SDS011;14992;50.844;4.418;2024-02-21T10:39:50;7.07;;;3.20;;
22336;SDS011;14992;50.844;4.418;2024-02-21T10:42:20;7.45;;;2.85;;
22336;SDS011;14992;50.844;4.418;2024-02-21T10:44:50;13.32;;;3.10;;
22336;SDS011;14992;50.844;4.418;2024-02-21T10:47:19;8.35;;;2.88;;
22336;SDS011;14992;50.844;4.418;2024-02-21T10:49:55;6.70;;;3.15;;
22336;SDS011;14992;50.844;4.418;2024-02-21T10:52:36;6.55;;;2.95;;
22336;SDS011;14992;50.844;4.418;2024-02-21T10:55:19;8.48;;;2.83;;
22336;SDS011;14992;50.844;4.418;2024-02-21T10:57:50;7.30;;;2.00;;
22336;SDS011;14992;50.844;4.418;2024-02-21T11:00:20;8.75;;;3.55;;
22336;SDS011;14992;50.844;4.418;2024-02-21T11:02:54;10.00;;;2.42;;
22336;SDS011;14992;50.844;4.418;2024-02-21T11:05:23;3.85;;;2.22;;
22336;SDS011;14992;50.844;4.418;2024-02-21T11:07:56;4.38;;;2.38;;
22336;SDS011;14992;50.844;4.418;2024-02-21T11:10:26;7.28;;;2.58;;
22336;SDS011;14992;50.844;4.418;2024-02-21T11:13:04;3.33;;;2.08;;
22336;SDS011;14992;50.844;4.418;2024-02-21T11:15:35;4.15;;;2.25;;
22336;SDS011;14992;50.844;4.418;2024-02-21T11:18:04;4.28;;;2.72;;
22336;SDS011;14992;50.844;4.418;2024-02-21T11:20:34;5.55;;;2.83;;
22336;SDS011;14992;50.844;4.418;2024-02-21T11:23:05;6.05;;;2.30;;
22336;SDS011;14992;50.844;4.418;2024-02-21T11:25:35;15.85;;;2.88;;
22336;SDS011;14992;50.844;4.418;2024-02-21T11:28:04;5.95;;;2.22;;
22336;SDS011;14992;50.844;4.418;2024-02-21T11:30:35;5.68;;;2.53;;
22336;SDS011;14992;50.844;4.418;2024-02-21T11:33:06;5.65;;;2.03;;
22336;SDS011;14992;50.844;4.418;2024-02-21T11:35:35;3.45;;;1.80;;
22336;SDS011;14992;50.844;4.418;2024-02-21T11:38:09;8.48;;;2.78;;
22336;SDS011;14992;50.844;4.418;2024-02-21T11:40:43;3.35;;;1.92;;
22336;SDS011;14992;50.844;4.418;2024-02-21T11:43:14;5.43;;;2.33;;
22336;SDS011;14992;50.844;4.418;2024-02-21T11:45:44;4.40;;;2.35;;
22336;SDS011;14992;50.844;4.418;2024-02-21T11:48:13;3.90;;;1.98;;
22336;SDS011;14992;50.844;4.418;2024-02-21T11:50:42;4.30;;;2.33;;
22336;SDS011;14992;50.844;4.418;2024-02-21T11:53:24;6.80;;;2.70;;
22336;SDS011;14992;50.844;4.418;2024-02-21T11:55:59;6.50;;;2.45;;
22336;SDS011;14992;50.844;4.418;2024-02-21T11:58:28;7.68;;;2.88;;
22336;SDS011;14992;50.844;4.418;2024-02-21T12:00:57;4.07;;;2.20;;
22336;SDS011;14992;50.844;4.418;2024-02-21T12:03:26;4.00;;;2.58;;
22336;SDS011;14992;50.844;4.418;2024-02-21T12:05:55;7.35;;;3.38;;
22336;SDS011;14992;50.844;4.418;2024-02-21T12:08:27;3.47;;;2.00;;
22336;SDS011;14992;50.844;4.418;2024-02-21T12:11:15;4.80;;;2.85;;
22336;SDS011;14992;50.844;4.418;2024-02-21T12:13:46;4.07;;;2.30;;
22336;SDS011;14992;50.844;4.418;2024-02-21T12:16:15;4.07;;;2.47;;
22336;SDS011;14992;50.844;4.418;2024-02-21T12:18:46;2.70;;;2.10;;
22336;SDS011;14992;50.844;4.418;2024-02-21T12:21:15;3.30;;;2.55;;
22336;SDS011;14992;50.844;4.418;2024-02-21T12:23:45;9.10;;;4.15;;
22336;SDS011;14992;50.844;4.418;2024-02-21T12:26:14;5.05;;;2.40;;
22336;SDS011;14992;50.844;4.418;2024-02-21T12:28:43;6.57;;;3.70;;
22336;SDS011;14992;50.844;4.418;2024-02-21T12:31:13;5.43;;;2.38;;
22336;SDS011;14992;50.844;4.418;2024-02-21T12:33:43;5.85;;;3.20;;
22336;SDS011;14992;50.844;4.418;2024-02-21T12:36:12;8.18;;;2.72;;
22336;SDS011;14992;50.844;4.418;2024-02-21T12:38:41;8.45;;;3.90;;
22336;SDS011;14992;50.844;4.418;2024-02-21T12:41:12;5.65;;;3.22;;
22336;SDS011;14992;50.844;4.418;2024-02-21T12:43:41;6.20;;;3.15;;
22336;SDS011;14992;50.844;4.418;2024-02-21T12:46:10;8.98;;;2.80;;
22336;SDS011;14992;50.844;4.418;2024-02-21T12:48:37;5.47;;;2.80;;
22336;SDS011;14992;50.844;4.418;2024-02-21T12:51:07;5.95;;;3.50;;
22336;SDS011;14992;50.844;4.418;2024-02-21T12:53:36;8.57;;;3.40;;
22336;SDS011;14992;50.844;4.418;2024-02-21T12:56:06;7.88;;;3.60;;
22336;SDS011;14992;50.844;4.418;2024-02-21T12:58:37;6.05;;;2.55;;
22336;SDS011;14992;50.844;4.418;2024-02-21T13:01:05;6.40;;;3.55;;
22336;SDS011;14992;50.844;4.418;2024-02-21T13:03:35;5.43;;;3.22;;
22336;SDS011;14992;50.844;4.418;2024-02-21T13:06:05;4.78;;;2.70;;
22336;SDS011;14992;50.844;4.418;2024-02-21T13:08:37;5.35;;;3.03;;
22336;SDS011;14992;50.844;4.418;2024-02-21T13:11:06;4.18;;;2.47;;
22336;SDS011;14992;50.844;4.418;2024-02-21T13:13:37;5.28;;;2.67;;
22336;SDS011;14992;50.844;4.418;2024-02-21T13:16:06;7.03;;;2.35;;
22336;SDS011;14992;50.844;4.418;2024-02-21T13:18:35;4.80;;;2.67;;
22336;SDS011;14992;50.844;4.418;2024-02-21T13:21:05;9.98;;;3.22;;
22336;SDS011;14992;50.844;4.418;2024-02-21T13:23:34;5.28;;;2.70;;
22336;SDS011;14992;50.844;4.418;2024-02-21T13:26:03;4.55;;;3.05;;
22336;SDS011;14992;50.844;4.418;2024-02-21T13:28:32;5.40;;;2.63;;
22336;SDS011;14992;50.844;4.418;2024-02-21T13:31:02;6.55;;;3.60;;
22336;SDS011;14992;50.844;4.418;2024-02-21T13:33:31;2.72;;;2.13;;
22336;SDS011;14992;50.844;4.418;2024-02-21T13:36:00;5.78;;;3.45;;
22336;SDS011;14992;50.844;4.418;2024-02-21T13:38:30;3.22;;;2.05;;
22336;SDS011;14992;50.844;4.418;2024-02-21T13:40:59;7.32;;;2.53;;
22336;SDS011;14992;50.844;4.418;2024-02-21T13:43:28;7.47;;;2.85;;
22336;SDS011;14992;50.844;4.418;2024-02-21T13:45:58;4.97;;;3.33;;
22336;SDS011;14992;50.844;4.418;2024-02-21T13:48:29;8.15;;;3.17;;
22336;SDS011;14992;50.844;4.418;2024-02-21T13:51:00;9.07;;;3.50;;
22336;SDS011;14992;50.844;4.418;2024-02-21T13:53:30;4.70;;;3.17;;
22336;SDS011;14992;50.844;4.418;2024-02-21T13:55:59;7.97;;;2.80;;
22336;SDS011;14992;50.844;4.418;2024-02-21T13:58:28;6.80;;;3.17;;
22336;SDS011;14992;50.844;4.418;2024-02-21T14:00:57;5.82;;;3.10;;
22336;SDS011;14992;50.844;4.418;2024-02-21T14:03:28;6.22;;;2.92;;
22336;SDS011;14992;50.844;4.418;2024-02-21T14:06:05;7.30;;;3.33;;
22336;SDS011;14992;50.844;4.418;2024-02-21T14:08:34;3.53;;;2.70;;
22336;SDS011;14992;50.844;4.418;2024-02-21T14:11:04;8.65;;;3.92;;
22336;SDS011;14992;50.844;4.418;2024-02-21T14:13:33;12.25;;;7.10;;
22336;SDS011;14992;50.844;4.418;2024-02-21T14:16:02;8.02;;;4.13;;
22336;SDS011;14992;50.844;4.418;2024-02-21T14:18:39;9.13;;;4.18;;
22336;SDS011;14992;50.844;4.418;2024-02-21T14:21:09;8.40;;;3.95;;
22336;SDS011;14992;50.844;4.418;2024-02-21T14:23:38;7.45;;;3.35;;
22336;SDS011;14992;50.844;4.418;2024-02-21T14:26:07;7.10;;;2.78;;
22336;SDS011;14992;50.844;4.418;2024-02-21T14:28:37;8.23;;;2.75;;
22336;SDS011;14992;50.844;4.418;2024-02-21T14:31:06;5.60;;;3.55;;
22336;SDS011;14992;50.844;4.418;2024-02-21T14:33:36;6.05;;;2.72;;
22336;SDS011;14992;50.844;4.418;2024-02-21T14:36:07;5.35;;;3.28;;
22336;SDS011;14992;50.844;4.418;2024-02-21T14:38:36;12.13;;;4.07;;
22336;SDS011;14992;50.844;4.418;2024-02-21T14:41:04;7.90;;;3.03;;
22336;SDS011;14992;50.844;4.418;2024-02-21T14:43:33;8.50;;;4.00;;
22336;SDS011;14992;50.844;4.418;2024-02-21T14:46:03;5.30;;;2.92;;
22336;SDS011;14992;50.844;4.418;2024-02-21T14:48:32;6.60;;;4.28;;
22336;SDS011;14992;50.844;4.418;2024-02-21T14:51:01;7.60;;;3.33;;
22336;SDS011;14992;50.844;4.418;2024-02-21T14:53:32;8.45;;;4.50;;
22336;SDS011;14992;50.844;4.418;2024-02-21T14:56:01;7.18;;;3.30;;
22336;SDS011;14992;50.844;4.418;2024-02-21T14:58:30;7.47;;;3.47;;